sensor_id;sensor_type;location;lat;lon;timestamp;P1;durP1;ratioP1;P2;durP2;ratioP2
18853;SDS011;9556;49.374;19.446;2023-08-12T00:01:53;5.82;;;3.38;;
18853;SDS011;9556;49.374;19.446;2023-08-12T00:04:20;5.15;;;3.30;;
18853;SDS011;9556;49.374;19.446;2023-08-12T00:06:47;4.13;;;3.20;;
18853;SDS011;9556;49.374;19.446;2023-08-12T00:09:14;6.93;;;3.40;;
18853;SDS011;9556;49.374;19.446;2023-08-12T00:11:43;3.83;;;2.92;;
18853;SDS011;9556;49.374;19.446;2023-08-12T00:14:10;3.60;;;3.03;;
18853;SDS011;9556;49.374;19.446;2023-08-12T00:16:38;5.25;;;3.20;;
18853;SDS011;9556;49.374;19.446;2023-08-12T00:19:06;4.68;;;3.03;;
18853;SDS011;9556;49.374;19.446;2023-08-12T00:21:34;4.55;;;3.20;;
18853;SDS011;9556;49.374;19.446;2023-08-12T00:24:01;4.43;;;3.10;;
18853;SDS011;9556;49.374;19.446;2023-08-12T00:26:28;4.07;;;3.13;;
18853;SDS011;9556;49.374;19.446;2023-08-12T00:28:55;4.18;;;3.10;;
18853;SDS011;9556;49.374;19.446;2023-08-12T00:31:23;5.70;;;3.28;;
18853;SDS011;9556;49.374;19.446;2023-08-12T00:33:51;4.93;;;3.42;;
18853;SDS011;9556;49.374;19.446;2023-08-12T00:36:18;4.13;;;3.28;;
18853;SDS011;9556;49.374;19.446;2023-08-12T00:38:45;4.97;;;3.20;;
18853;SDS011;9556;49.374;19.446;2023-08-12T00:41:12;4.88;;;3.20;;
18853;SDS011;9556;49.374;19.446;2023-08-12T00:43:40;4.03;;;3.00;;
18853;SDS011;9556;49.374;19.446;2023-08-12T00:46:07;4.78;;;3.08;;
18853;SDS011;9556;49.374;19.446;2023-08-12T00:48:34;6.43;;;3.20;;
18853;SDS011;9556;49.374;19.446;2023-08-12T00:51:02;4.18;;;2.95;;
18853;SDS011;9556;49.374;19.446;2023-08-12T00:53:30;3.90;;;2.95;;
18853;SDS011;9556;49.374;19.446;2023-08-12T00:55:57;4.47;;;3.00;;
18853;SDS011;9556;49.374;19.446;2023-08-12T00:58:33;4.25;;;3.10;;
18853;SDS011;9556;49.374;19.446;2023-08-12T01:01:09;5.03;;;3.00;;
18853;SDS011;9556;49.374;19.446;2023-08-12T01:03:37;4.90;;;3.05;;
18853;SDS011;9556;49.374;19.446;2023-08-12T01:06:05;4.38;;;2.97;;
18853;SDS011;9556;49.374;19.446;2023-08-12T01:08:33;3.90;;;2.97;;
18853;SDS011;9556;49.374;19.446;2023-08-12T01:11:02;4.53;;;2.85;;
18853;SDS011;9556;49.374;19.446;2023-08-12T01:13:32;3.90;;;2.78;;
18853;SDS011;9556;49.374;19.446;2023-08-12T01:16:01;4.78;;;3.05;;
18853;SDS011;9556;49.374;19.446;2023-08-12T01:18:30;4.00;;;3.10;;
18853;SDS011;9556;49.374;19.446;2023-08-12T01:20:58;4.63;;;3.30;;
18853;SDS011;9556;49.374;19.446;2023-08-12T01:23:30;5.75;;;2.85;;
18853;SDS011;9556;49.374;19.446;2023-08-12T01:25:57;4.30;;;3.10;;
18853;SDS011;9556;49.374;19.446;2023-08-12T01:28:24;3.50;;;2.90;;
18853;SDS011;9556;49.374;19.446;2023-08-12T01:30:52;3.33;;;2.70;;
18853;SDS011;9556;49.374;19.446;2023-08-12T01:33:21;4.28;;;3.22;;
18853;SDS011;9556;49.374;19.446;2023-08-12T01:35:51;3.80;;;3.03;;
18853;SDS011;9556;49.374;19.446;2023-08-12T01:38:20;4.57;;;3.45;;
18853;SDS011;9556;49.374;19.446;2023-08-12T01:40:49;4.10;;;2.85;;
18853;SDS011;9556;49.374;19.446;2023-08-12T01:43:17;4.00;;;3.00;;
18853;SDS011;9556;49.374;19.446;2023-08-12T01:45:44;4.00;;;3.30;;
18853;SDS011;9556;49.374;19.446;2023-08-12T01:48:11;4.43;;;3.28;;
18853;SDS011;9556;49.374;19.446;2023-08-12T01:50:39;4.75;;;3.00;;
18853;SDS011;9556;49.374;19.446;2023-08-12T01:53:11;4.13;;;2.88;;
18853;SDS011;9556;49.374;19.446;2023-08-12T01:55:40;8.15;;;3.03;;
18853;SDS011;9556;49.374;19.446;2023-08-12T01:58:09;4.20;;;3.20;;
18853;SDS011;9556;49.374;19.446;2023-08-12T02:00:36;4.47;;;3.20;;
18853;SDS011;9556;49.374;19.446;2023-08-12T02:03:03;4.63;;;2.85;;
18853;SDS011;9556;49.374;19.446;2023-08-12T02:05:31;4.15;;;2.97;;
18853;SDS011;9556;49.374;19.446;2023-08-12T02:07:59;4.85;;;3.20;;
18853;SDS011;9556;49.374;19.446;2023-08-12T02:10:26;3.88;;;2.88;;
18853;SDS011;9556;49.374;19.446;2023-08-12T02:12:53;4.65;;;3.10;;
18853;SDS011;9556;49.374;19.446;2023-08-12T02:15:21;4.38;;;2.97;;
18853;SDS011;9556;49.374;19.446;2023-08-12T02:17:48;4.22;;;2.80;;
18853;SDS011;9556;49.374;19.446;2023-08-12T02:20:16;3.90;;;2.85;;
18853;SDS011;9556;49.374;19.446;2023-08-12T02:22:43;3.60;;;2.75;;
18853;SDS011;9556;49.374;19.446;2023-08-12T02:25:10;3.70;;;2.83;;
18853;SDS011;9556;49.374;19.446;2023-08-12T02:27:38;3.35;;;2.80;;
18853;SDS011;9556;49.374;19.446;2023-08-12T02:30:05;3.17;;;2.75;;
18853;SDS011;9556;49.374;19.446;2023-08-12T02:32:34;4.57;;;3.20;;
18853;SDS011;9556;49.374;19.446;2023-08-12T02:35:01;3.80;;;3.05;;
18853;SDS011;9556;49.374;19.446;2023-08-12T02:37:28;3.33;;;2.75;;
18853;SDS011;9556;49.374;19.446;2023-08-12T02:39:55;4.00;;;3.05;;
18853;SDS011;9556;49.374;19.446;2023-08-12T02:42:22;3.72;;;3.00;;
18853;SDS011;9556;49.374;19.446;2023-08-12T02:44:49;3.95;;;3.00;;
18853;SDS011;9556;49.374;19.446;2023-08-12T02:47:17;4.60;;;3.22;;
18853;SDS011;9556;49.374;19.446;2023-08-12T02:49:45;3.95;;;2.90;;
18853;SDS011;9556;49.374;19.446;2023-08-12T02:52:12;5.22;;;3.20;;
18853;SDS011;9556;49.374;19.446;2023-08-12T02:54:40;3.30;;;2.75;;
18853;SDS011;9556;49.374;19.446;2023-08-12T02:57:07;4.93;;;3.13;;
18853;SDS011;9556;49.374;19.446;2023-08-12T02:59:34;4.35;;;2.97;;
18853;SDS011;9556;49.374;19.446;2023-08-12T03:02:01;4.75;;;3.00;;
18853;SDS011;9556;49.374;19.446;2023-08-12T03:04:29;4.28;;;2.92;;
18853;SDS011;9556;49.374;19.446;2023-08-12T03:06:57;6.82;;;2.95;;
18853;SDS011;9556;49.374;19.446;2023-08-12T03:09:24;3.67;;;2.95;;
18853;SDS011;9556;49.374;19.446;2023-08-12T03:11:51;4.32;;;2.95;;
18853;SDS011;9556;49.374;19.446;2023-08-12T03:14:18;3.97;;;2.88;;
18853;SDS011;9556;49.374;19.446;2023-08-12T03:16:46;4.15;;;3.00;;
18853;SDS011;9556;49.374;19.446;2023-08-12T03:19:13;4.25;;;3.13;;
18853;SDS011;9556;49.374;19.446;2023-08-12T03:21:40;3.60;;;2.65;;
18853;SDS011;9556;49.374;19.446;2023-08-12T03:24:08;4.57;;;3.00;;
18853;SDS011;9556;49.374;19.446;2023-08-12T03:26:36;5.50;;;2.80;;
18853;SDS011;9556;49.374;19.446;2023-08-12T03:29:03;4.43;;;2.90;;
18853;SDS011;9556;49.374;19.446;2023-08-12T03:31:30;4.43;;;2.95;;
18853;SDS011;9556;49.374;19.446;2023-08-12T03:33:57;5.18;;;2.97;;
18853;SDS011;9556;49.374;19.446;2023-08-12T03:36:24;3.80;;;2.90;;
18853;SDS011;9556;49.374;19.446;2023-08-12T03:38:51;4.07;;;2.97;;
18853;SDS011;9556;49.374;19.446;2023-08-12T03:41:20;3.42;;;2.63;;
18853;SDS011;9556;49.374;19.446;2023-08-12T03:43:47;5.85;;;2.85;;
18853;SDS011;9556;49.374;19.446;2023-08-12T03:46:15;3.50;;;2.67;;
18853;SDS011;9556;49.374;19.446;2023-08-12T03:48:42;3.63;;;2.83;;
18853;SDS011;9556;49.374;19.446;2023-08-12T03:51:10;4.95;;;3.20;;
18853;SDS011;9556;49.374;19.446;2023-08-12T03:53:37;3.03;;;2.70;;
18853;SDS011;9556;49.374;19.446;2023-08-12T03:56:04;3.90;;;2.70;;
18853;SDS011;9556;49.374;19.446;2023-08-12T03:58:32;5.03;;;2.80;;
18853;SDS011;9556;49.374;19.446;2023-08-12T04:00:59;5.07;;;3.10;;
18853;SDS011;9556;49.374;19.446;2023-08-12T04:03:27;3.55;;;2.72;;
18853;SDS011;9556;49.374;19.446;2023-08-12T04:05:54;3.85;;;2.70;;
18853;SDS011;9556;49.374;19.446;2023-08-12T04:08:21;3.80;;;2.97;;
18853;SDS011;9556;49.374;19.446;2023-08-12T04:10:49;4.18;;;3.10;;
18853;SDS011;9556;49.374;19.446;2023-08-12T04:13:16;3.83;;;2.88;;
18853;SDS011;9556;49.374;19.446;2023-08-12T04:15:47;4.13;;;2.83;;
18853;SDS011;9556;49.374;19.446;2023-08-12T04:18:15;3.42;;;3.00;;
18853;SDS011;9556;49.374;19.446;2023-08-12T04:20:44;5.78;;;2.90;;
18853;SDS011;9556;49.374;19.446;2023-08-12T04:23:12;3.83;;;2.72;;
18853;SDS011;9556;49.374;19.446;2023-08-12T04:25:39;4.30;;;2.80;;
18853;SDS011;9556;49.374;19.446;2023-08-12T04:28:06;3.50;;;2.70;;
18853;SDS011;9556;49.374;19.446;2023-08-12T04:30:33;4.60;;;2.67;;
18853;SDS011;9556;49.374;19.446;2023-08-12T04:33:02;3.70;;;2.70;;
18853;SDS011;9556;49.374;19.446;2023-08-12T04:35:30;4.55;;;3.00;;
18853;SDS011;9556;49.374;19.446;2023-08-12T04:37:58;3.22;;;2.67;;
18853;SDS011;9556;49.374;19.446;2023-08-12T04:40:25;4.35;;;3.35;;
18853;SDS011;9556;49.374;19.446;2023-08-12T04:42:52;5.63;;;2.95;;
18853;SDS011;9556;49.374;19.446;2023-08-12T04:45:19;3.50;;;3.00;;
18853;SDS011;9556;49.374;19.446;2023-08-12T04:47:47;3.58;;;2.83;;
18853;SDS011;9556;49.374;19.446;2023-08-12T04:50:15;6.35;;;3.22;;
18853;SDS011;9556;49.374;19.446;2023-08-12T04:52:42;4.50;;;3.00;;
18853;SDS011;9556;49.374;19.446;2023-08-12T04:55:09;3.15;;;2.70;;
18853;SDS011;9556;49.374;19.446;2023-08-12T04:57:37;3.33;;;2.70;;
18853;SDS011;9556;49.374;19.446;2023-08-12T05:00:04;3.92;;;2.60;;
18853;SDS011;9556;49.374;19.446;2023-08-12T05:02:33;3.20;;;2.88;;
18853;SDS011;9556;49.374;19.446;2023-08-12T05:05:00;3.58;;;3.10;;
18853;SDS011;9556;49.374;19.446;2023-08-12T05:07:29;3.97;;;2.88;;
18853;SDS011;9556;49.374;19.446;2023-08-12T05:09:59;3.85;;;2.70;;
18853;SDS011;9556;49.374;19.446;2023-08-12T05:12:26;3.70;;;2.50;;
18853;SDS011;9556;49.374;19.446;2023-08-12T05:14:53;3.45;;;2.67;;
18853;SDS011;9556;49.374;19.446;2023-08-12T05:17:20;3.45;;;2.70;;
18853;SDS011;9556;49.374;19.446;2023-08-12T05:19:47;3.40;;;2.58;;
18853;SDS011;9556;49.374;19.446;2023-08-12T05:22:15;3.30;;;2.70;;
18853;SDS011;9556;49.374;19.446;2023-08-12T05:24:43;3.55;;;2.90;;
18853;SDS011;9556;49.374;19.446;2023-08-12T05:27:10;4.75;;;2.72;;
18853;SDS011;9556;49.374;19.446;2023-08-12T05:29:37;3.95;;;2.90;;
18853;SDS011;9556;49.374;19.446;2023-08-12T05:32:06;3.90;;;2.53;;
18853;SDS011;9556;49.374;19.446;2023-08-12T05:34:33;4.70;;;2.75;;
18853;SDS011;9556;49.374;19.446;2023-08-12T05:37:00;5.55;;;2.90;;
18853;SDS011;9556;49.374;19.446;2023-08-12T05:39:28;3.65;;;2.83;;
18853;SDS011;9556;49.374;19.446;2023-08-12T05:41:56;3.55;;;2.67;;
18853;SDS011;9556;49.374;19.446;2023-08-12T05:44:23;3.15;;;2.60;;
18853;SDS011;9556;49.374;19.446;2023-08-12T05:46:50;3.92;;;2.80;;
18853;SDS011;9556;49.374;19.446;2023-08-12T05:49:17;4.13;;;2.90;;
18853;SDS011;9556;49.374;19.446;2023-08-12T05:51:45;3.50;;;2.63;;
18853;SDS011;9556;49.374;19.446;2023-08-12T05:54:12;2.88;;;2.55;;
18853;SDS011;9556;49.374;19.446;2023-08-12T05:56:39;3.28;;;2.70;;
18853;SDS011;9556;49.374;19.446;2023-08-12T05:59:07;4.05;;;2.60;;
18853;SDS011;9556;49.374;19.446;2023-08-12T06:01:35;5.25;;;2.67;;
18853;SDS011;9556;49.374;19.446;2023-08-12T06:04:02;3.72;;;2.80;;
18853;SDS011;9556;49.374;19.446;2023-08-12T06:06:29;4.63;;;2.40;;
18853;SDS011;9556;49.374;19.446;2023-08-12T06:08:58;4.78;;;2.78;;
18853;SDS011;9556;49.374;19.446;2023-08-12T06:11:25;4.13;;;2.60;;
18853;SDS011;9556;49.374;19.446;2023-08-12T06:13:52;5.57;;;3.00;;
18853;SDS011;9556;49.374;19.446;2023-08-12T06:16:21;3.47;;;2.63;;
18853;SDS011;9556;49.374;19.446;2023-08-12T06:18:48;5.70;;;2.40;;
18853;SDS011;9556;49.374;19.446;2023-08-12T06:21:15;4.35;;;2.80;;
18853;SDS011;9556;49.374;19.446;2023-08-12T06:23:42;3.58;;;2.45;;
18853;SDS011;9556;49.374;19.446;2023-08-12T06:26:09;3.20;;;2.50;;
18853;SDS011;9556;49.374;19.446;2023-08-12T06:28:37;4.70;;;2.70;;
18853;SDS011;9556;49.374;19.446;2023-08-12T06:31:04;3.83;;;2.92;;
18853;SDS011;9556;49.374;19.446;2023-08-12T06:33:32;3.83;;;2.40;;
18853;SDS011;9556;49.374;19.446;2023-08-12T06:35:59;3.53;;;2.83;;
18853;SDS011;9556;49.374;19.446;2023-08-12T06:38:26;4.65;;;2.70;;
18853;SDS011;9556;49.374;19.446;2023-08-12T06:40:54;3.15;;;2.50;;
18853;SDS011;9556;49.374;19.446;2023-08-12T06:43:21;3.28;;;2.40;;
18853;SDS011;9556;49.374;19.446;2023-08-12T06:45:48;5.43;;;2.50;;
18853;SDS011;9556;49.374;19.446;2023-08-12T06:48:15;6.00;;;2.72;;
18853;SDS011;9556;49.374;19.446;2023-08-12T06:50:44;4.40;;;2.80;;
18853;SDS011;9556;49.374;19.446;2023-08-12T06:53:11;3.10;;;2.40;;
18853;SDS011;9556;49.374;19.446;2023-08-12T06:55:43;3.40;;;2.30;;
18853;SDS011;9556;49.374;19.446;2023-08-12T06:58:10;3.92;;;2.60;;
18853;SDS011;9556;49.374;19.446;2023-08-12T07:00:37;5.18;;;2.50;;
18853;SDS011;9556;49.374;19.446;2023-08-12T07:03:04;4.00;;;2.42;;
18853;SDS011;9556;49.374;19.446;2023-08-12T07:05:32;4.32;;;2.47;;
18853;SDS011;9556;49.374;19.446;2023-08-12T07:08:00;5.05;;;2.78;;
18853;SDS011;9556;49.374;19.446;2023-08-12T07:10:27;3.63;;;2.53;;
18853;SDS011;9556;49.374;19.446;2023-08-12T07:12:54;3.85;;;2.83;;
18853;SDS011;9556;49.374;19.446;2023-08-12T07:15:22;4.25;;;2.80;;
18853;SDS011;9556;49.374;19.446;2023-08-12T07:17:49;10.43;;;2.70;;
18853;SDS011;9556;49.374;19.446;2023-08-12T07:20:16;4.57;;;2.80;;
18853;SDS011;9556;49.374;19.446;2023-08-12T07:22:43;9.48;;;3.22;;
18853;SDS011;9556;49.374;19.446;2023-08-12T07:25:12;7.97;;;3.10;;
18853;SDS011;9556;49.374;19.446;2023-08-12T07:27:39;4.75;;;2.65;;
18853;SDS011;9556;49.374;19.446;2023-08-12T07:30:06;5.45;;;3.08;;
18853;SDS011;9556;49.374;19.446;2023-08-12T07:32:34;8.20;;;2.80;;
18853;SDS011;9556;49.374;19.446;2023-08-12T07:35:01;3.60;;;2.63;;
18853;SDS011;9556;49.374;19.446;2023-08-12T07:37:28;6.95;;;2.90;;
18853;SDS011;9556;49.374;19.446;2023-08-12T07:39:55;6.68;;;2.70;;
18853;SDS011;9556;49.374;19.446;2023-08-12T07:42:24;5.80;;;3.05;;
18853;SDS011;9556;49.374;19.446;2023-08-12T07:44:51;3.50;;;2.47;;
18853;SDS011;9556;49.374;19.446;2023-08-12T07:47:18;5.88;;;2.70;;
18853;SDS011;9556;49.374;19.446;2023-08-12T07:49:45;3.95;;;2.63;;
18853;SDS011;9556;49.374;19.446;2023-08-12T07:52:12;8.30;;;2.83;;
18853;SDS011;9556;49.374;19.446;2023-08-12T07:54:40;5.60;;;2.70;;
18853;SDS011;9556;49.374;19.446;2023-08-12T07:57:07;17.38;;;3.28;;
18853;SDS011;9556;49.374;19.446;2023-08-12T07:59:35;3.63;;;2.53;;
18853;SDS011;9556;49.374;19.446;2023-08-12T08:02:02;3.13;;;2.40;;
18853;SDS011;9556;49.374;19.446;2023-08-12T08:04:30;3.45;;;2.28;;
18853;SDS011;9556;49.374;19.446;2023-08-12T08:06:57;5.90;;;2.53;;
18853;SDS011;9556;49.374;19.446;2023-08-12T08:09:24;12.40;;;2.50;;
18853;SDS011;9556;49.374;19.446;2023-08-12T08:11:51;11.25;;;2.30;;
18853;SDS011;9556;49.374;19.446;2023-08-12T08:14:18;10.70;;;2.20;;
18853;SDS011;9556;49.374;19.446;2023-08-12T08:16:47;4.50;;;2.28;;
18853;SDS011;9556;49.374;19.446;2023-08-12T08:19:14;6.15;;;2.60;;
18853;SDS011;9556;49.374;19.446;2023-08-12T08:21:41;8.55;;;2.50;;
18853;SDS011;9556;49.374;19.446;2023-08-12T08:24:08;3.28;;;2.40;;
18853;SDS011;9556;49.374;19.446;2023-08-12T08:26:37;3.45;;;2.20;;
18853;SDS011;9556;49.374;19.446;2023-08-12T08:29:04;4.90;;;2.30;;
18853;SDS011;9556;49.374;19.446;2023-08-12T08:31:32;3.78;;;2.58;;
18853;SDS011;9556;49.374;19.446;2023-08-12T08:34:00;4.43;;;2.20;;
18853;SDS011;9556;49.374;19.446;2023-08-12T08:36:27;5.90;;;2.40;;
18853;SDS011;9556;49.374;19.446;2023-08-12T08:38:54;4.28;;;2.42;;
18853;SDS011;9556;49.374;19.446;2023-08-12T08:41:22;5.32;;;2.45;;
18853;SDS011;9556;49.374;19.446;2023-08-12T08:43:51;3.55;;;2.55;;
18853;SDS011;9556;49.374;19.446;2023-08-12T08:46:19;3.40;;;2.20;;
18853;SDS011;9556;49.374;19.446;2023-08-12T08:48:47;3.40;;;2.20;;
18853;SDS011;9556;49.374;19.446;2023-08-12T08:51:17;3.17;;;2.08;;
18853;SDS011;9556;49.374;19.446;2023-08-12T08:53:44;2.80;;;2.00;;
18853;SDS011;9556;49.374;19.446;2023-08-12T08:56:12;4.72;;;2.17;;
18853;SDS011;9556;49.374;19.446;2023-08-12T08:58:39;6.20;;;2.20;;
18853;SDS011;9556;49.374;19.446;2023-08-12T09:01:06;2.42;;;2.03;;
18853;SDS011;9556;49.374;19.446;2023-08-12T09:03:34;5.95;;;1.92;;
18853;SDS011;9556;49.374;19.446;2023-08-12T09:06:03;2.55;;;1.95;;
18853;SDS011;9556;49.374;19.446;2023-08-12T09:08:32;3.60;;;2.10;;
18853;SDS011;9556;49.374;19.446;2023-08-12T09:10:59;3.50;;;2.00;;
18853;SDS011;9556;49.374;19.446;2023-08-12T09:13:26;3.13;;;2.10;;
18853;SDS011;9556;49.374;19.446;2023-08-12T09:15:54;4.13;;;2.00;;
18853;SDS011;9556;49.374;19.446;2023-08-12T09:18:21;3.13;;;2.33;;
18853;SDS011;9556;49.374;19.446;2023-08-12T09:20:49;4.47;;;2.15;;
18853;SDS011;9556;49.374;19.446;2023-08-12T09:23:16;4.35;;;2.05;;
18853;SDS011;9556;49.374;19.446;2023-08-12T09:25:45;2.38;;;1.92;;
18853;SDS011;9556;49.374;19.446;2023-08-12T09:28:12;2.38;;;1.90;;
18853;SDS011;9556;49.374;19.446;2023-08-12T09:30:40;3.92;;;2.05;;
18853;SDS011;9556;49.374;19.446;2023-08-12T09:33:07;2.38;;;1.90;;
18853;SDS011;9556;49.374;19.446;2023-08-12T09:35:36;3.63;;;1.90;;
18853;SDS011;9556;49.374;19.446;2023-08-12T09:38:04;3.00;;;2.20;;
18853;SDS011;9556;49.374;19.446;2023-08-12T09:40:32;5.55;;;2.10;;
18853;SDS011;9556;49.374;19.446;2023-08-12T09:43:01;3.35;;;2.13;;
18853;SDS011;9556;49.374;19.446;2023-08-12T09:45:29;9.32;;;2.20;;
18853;SDS011;9556;49.374;19.446;2023-08-12T09:47:57;2.70;;;2.00;;
18853;SDS011;9556;49.374;19.446;2023-08-12T09:50:25;2.70;;;1.88;;
18853;SDS011;9556;49.374;19.446;2023-08-12T09:52:53;3.17;;;1.90;;
18853;SDS011;9556;49.374;19.446;2023-08-12T09:55:20;3.28;;;2.17;;
18853;SDS011;9556;49.374;19.446;2023-08-12T09:57:48;1.90;;;1.70;;
18853;SDS011;9556;49.374;19.446;2023-08-12T10:00:19;2.53;;;2.03;;
18853;SDS011;9556;49.374;19.446;2023-08-12T10:02:47;3.08;;;1.90;;
18853;SDS011;9556;49.374;19.446;2023-08-12T10:05:18;2.42;;;1.95;;
18853;SDS011;9556;49.374;19.446;2023-08-12T10:07:46;2.50;;;2.00;;
18853;SDS011;9556;49.374;19.446;2023-08-12T10:10:14;4.78;;;2.10;;
18853;SDS011;9556;49.374;19.446;2023-08-12T10:12:42;2.72;;;1.92;;
18853;SDS011;9556;49.374;19.446;2023-08-12T10:15:09;2.35;;;2.00;;
18853;SDS011;9556;49.374;19.446;2023-08-12T10:17:38;3.22;;;2.05;;
18853;SDS011;9556;49.374;19.446;2023-08-12T10:20:07;4.75;;;2.05;;
18853;SDS011;9556;49.374;19.446;2023-08-12T10:22:35;3.15;;;2.03;;
18853;SDS011;9556;49.374;19.446;2023-08-12T10:25:03;2.15;;;1.88;;
18853;SDS011;9556;49.374;19.446;2023-08-12T10:27:30;2.55;;;2.08;;
18853;SDS011;9556;49.374;19.446;2023-08-12T10:29:58;2.40;;;1.90;;
18853;SDS011;9556;49.374;19.446;2023-08-12T10:32:25;3.70;;;2.00;;
18853;SDS011;9556;49.374;19.446;2023-08-12T10:34:57;2.90;;;2.15;;
18853;SDS011;9556;49.374;19.446;2023-08-12T10:37:25;2.78;;;2.00;;
18853;SDS011;9556;49.374;19.446;2023-08-12T10:39:53;3.08;;;2.08;;
18853;SDS011;9556;49.374;19.446;2023-08-12T10:45:06;4.32;;;2.47;;
18853;SDS011;9556;49.374;19.446;2023-08-12T10:47:37;2.10;;;1.77;;
18853;SDS011;9556;49.374;19.446;2023-08-12T10:50:06;3.08;;;2.20;;
18853;SDS011;9556;49.374;19.446;2023-08-12T10:52:43;2.45;;;2.10;;
18853;SDS011;9556;49.374;19.446;2023-08-12T10:55:17;3.13;;;2.20;;
18853;SDS011;9556;49.374;19.446;2023-08-12T10:57:44;2.10;;;1.90;;
18853;SDS011;9556;49.374;19.446;2023-08-12T11:00:13;2.53;;;2.10;;
18853;SDS011;9556;49.374;19.446;2023-08-12T11:02:40;2.20;;;2.00;;
18853;SDS011;9556;49.374;19.446;2023-08-12T11:05:12;2.25;;;1.80;;
18853;SDS011;9556;49.374;19.446;2023-08-12T11:07:41;2.50;;;1.98;;
18853;SDS011;9556;49.374;19.446;2023-08-12T11:10:12;2.40;;;1.98;;
18853;SDS011;9556;49.374;19.446;2023-08-12T11:12:40;2.67;;;1.90;;
18853;SDS011;9556;49.374;19.446;2023-08-12T11:15:08;2.30;;;2.00;;
18853;SDS011;9556;49.374;19.446;2023-08-12T11:17:37;3.00;;;1.95;;
18853;SDS011;9556;49.374;19.446;2023-08-12T11:20:05;2.50;;;2.00;;
18853;SDS011;9556;49.374;19.446;2023-08-12T11:22:35;2.70;;;2.28;;
18853;SDS011;9556;49.374;19.446;2023-08-12T11:25:03;2.30;;;1.90;;
18853;SDS011;9556;49.374;19.446;2023-08-12T11:27:36;2.28;;;1.80;;
18853;SDS011;9556;49.374;19.446;2023-08-12T11:30:04;4.53;;;2.10;;
18853;SDS011;9556;49.374;19.446;2023-08-12T11:32:31;2.75;;;2.13;;
18853;SDS011;9556;49.374;19.446;2023-08-12T11:34:59;3.20;;;2.20;;
18853;SDS011;9556;49.374;19.446;2023-08-12T11:37:26;2.40;;;1.98;;
18853;SDS011;9556;49.374;19.446;2023-08-12T11:39:55;2.08;;;1.88;;
18853;SDS011;9556;49.374;19.446;2023-08-12T11:42:22;2.38;;;1.90;;
18853;SDS011;9556;49.374;19.446;2023-08-12T11:44:49;2.83;;;1.90;;
18853;SDS011;9556;49.374;19.446;2023-08-12T11:47:16;2.03;;;1.80;;
18853;SDS011;9556;49.374;19.446;2023-08-12T11:49:43;2.75;;;2.13;;
18853;SDS011;9556;49.374;19.446;2023-08-12T11:52:10;2.25;;;1.88;;
18853;SDS011;9556;49.374;19.446;2023-08-12T11:54:38;2.60;;;2.00;;
18853;SDS011;9556;49.374;19.446;2023-08-12T11:57:07;2.30;;;2.00;;
18853;SDS011;9556;49.374;19.446;2023-08-12T11:59:34;2.78;;;2.00;;
18853;SDS011;9556;49.374;19.446;2023-08-12T12:02:02;1.95;;;1.77;;
18853;SDS011;9556;49.374;19.446;2023-08-12T12:04:30;2.55;;;2.00;;
18853;SDS011;9556;49.374;19.446;2023-08-12T12:06:57;2.08;;;1.70;;
18853;SDS011;9556;49.374;19.446;2023-08-12T12:09:25;2.10;;;1.90;;
18853;SDS011;9556;49.374;19.446;2023-08-12T12:11:52;2.30;;;2.00;;
18853;SDS011;9556;49.374;19.446;2023-08-12T12:14:21;2.25;;;1.85;;
18853;SDS011;9556;49.374;19.446;2023-08-12T12:16:48;2.40;;;2.05;;
18853;SDS011;9556;49.374;19.446;2023-08-12T12:19:16;2.55;;;2.10;;
18853;SDS011;9556;49.374;19.446;2023-08-12T12:21:44;2.53;;;1.90;;
18853;SDS011;9556;49.374;19.446;2023-08-12T12:24:12;3.33;;;1.92;;
18853;SDS011;9556;49.374;19.446;2023-08-12T12:26:39;2.10;;;1.90;;
18853;SDS011;9556;49.374;19.446;2023-08-12T12:29:06;2.78;;;1.80;;
18853;SDS011;9556;49.374;19.446;2023-08-12T12:31:38;2.50;;;1.80;;
18853;SDS011;9556;49.374;19.446;2023-08-12T12:34:05;2.00;;;1.80;;
18853;SDS011;9556;49.374;19.446;2023-08-12T12:36:34;2.90;;;2.00;;
18853;SDS011;9556;49.374;19.446;2023-08-12T12:39:02;2.53;;;1.80;;
18853;SDS011;9556;49.374;19.446;2023-08-12T12:41:29;2.47;;;1.77;;
18853;SDS011;9556;49.374;19.446;2023-08-12T12:43:57;2.10;;;1.90;;
18853;SDS011;9556;49.374;19.446;2023-08-12T12:46:25;2.47;;;1.83;;
18853;SDS011;9556;49.374;19.446;2023-08-12T12:48:53;2.17;;;1.95;;
18853;SDS011;9556;49.374;19.446;2023-08-12T12:51:20;2.53;;;1.90;;
18853;SDS011;9556;49.374;19.446;2023-08-12T12:53:47;2.58;;;2.00;;
18853;SDS011;9556;49.374;19.446;2023-08-12T12:56:15;1.95;;;1.63;;
18853;SDS011;9556;49.374;19.446;2023-08-12T12:58:42;2.42;;;2.00;;
18853;SDS011;9556;49.374;19.446;2023-08-12T13:01:09;2.00;;;1.80;;
18853;SDS011;9556;49.374;19.446;2023-08-12T13:03:36;2.22;;;1.80;;
18853;SDS011;9556;49.374;19.446;2023-08-12T13:06:05;2.97;;;1.92;;
18853;SDS011;9556;49.374;19.446;2023-08-12T13:08:32;2.55;;;1.80;;
18853;SDS011;9556;49.374;19.446;2023-08-12T13:10:59;2.47;;;2.00;;
18853;SDS011;9556;49.374;19.446;2023-08-12T13:13:26;2.95;;;2.17;;
18853;SDS011;9556;49.374;19.446;2023-08-12T13:15:54;3.33;;;2.10;;
18853;SDS011;9556;49.374;19.446;2023-08-12T13:18:21;2.38;;;1.73;;
18853;SDS011;9556;49.374;19.446;2023-08-12T13:20:48;2.13;;;1.90;;
18853;SDS011;9556;49.374;19.446;2023-08-12T13:23:16;1.98;;;1.70;;
18853;SDS011;9556;49.374;19.446;2023-08-12T13:25:44;2.15;;;1.88;;
18853;SDS011;9556;49.374;19.446;2023-08-12T13:28:11;2.67;;;2.00;;
18853;SDS011;9556;49.374;19.446;2023-08-12T13:30:38;1.90;;;1.70;;
18853;SDS011;9556;49.374;19.446;2023-08-12T13:33:05;2.28;;;1.90;;
18853;SDS011;9556;49.374;19.446;2023-08-12T13:35:33;1.80;;;1.70;;
18853;SDS011;9556;49.374;19.446;2023-08-12T13:38:00;2.00;;;1.80;;
18853;SDS011;9556;49.374;19.446;2023-08-12T13:40:29;2.60;;;2.00;;
18853;SDS011;9556;49.374;19.446;2023-08-12T13:42:56;2.15;;;1.90;;
18853;SDS011;9556;49.374;19.446;2023-08-12T13:45:23;2.30;;;1.90;;
18853;SDS011;9556;49.374;19.446;2023-08-12T13:47:51;2.30;;;1.90;;
18853;SDS011;9556;49.374;19.446;2023-08-12T13:50:19;2.28;;;2.05;;
18853;SDS011;9556;49.374;19.446;2023-08-12T13:52:46;2.10;;;1.80;;
18853;SDS011;9556;49.374;19.446;2023-08-12T13:55:15;4.13;;;1.90;;
18853;SDS011;9556;49.374;19.446;2023-08-12T13:57:43;2.47;;;2.00;;
18853;SDS011;9556;49.374;19.446;2023-08-12T14:00:11;2.72;;;1.90;;
18853;SDS011;9556;49.374;19.446;2023-08-12T14:02:39;2.13;;;1.80;;
18853;SDS011;9556;49.374;19.446;2023-08-12T14:05:07;3.35;;;2.00;;
18853;SDS011;9556;49.374;19.446;2023-08-12T14:07:35;2.60;;;2.10;;
18853;SDS011;9556;49.374;19.446;2023-08-12T14:10:02;4.88;;;1.98;;
18853;SDS011;9556;49.374;19.446;2023-08-12T14:12:30;2.22;;;1.92;;
18853;SDS011;9556;49.374;19.446;2023-08-12T14:14:58;1.70;;;1.60;;
18853;SDS011;9556;49.374;19.446;2023-08-12T14:17:25;1.85;;;1.55;;
18853;SDS011;9556;49.374;19.446;2023-08-12T14:19:52;2.00;;;1.80;;
18853;SDS011;9556;49.374;19.446;2023-08-12T14:22:20;2.08;;;1.80;;
18853;SDS011;9556;49.374;19.446;2023-08-12T14:24:47;2.55;;;1.80;;
18853;SDS011;9556;49.374;19.446;2023-08-12T14:27:14;1.85;;;1.73;;
18853;SDS011;9556;49.374;19.446;2023-08-12T14:29:42;2.38;;;1.88;;
18853;SDS011;9556;49.374;19.446;2023-08-12T14:32:11;1.77;;;1.67;;
18853;SDS011;9556;49.374;19.446;2023-08-12T14:34:41;1.60;;;1.50;;
18853;SDS011;9556;49.374;19.446;2023-08-12T14:37:10;2.03;;;1.58;;
18853;SDS011;9556;49.374;19.446;2023-08-12T14:39:37;2.30;;;1.67;;
18853;SDS011;9556;49.374;19.446;2023-08-12T14:42:04;3.40;;;2.25;;
18853;SDS011;9556;49.374;19.446;2023-08-12T14:44:33;1.98;;;1.65;;
18853;SDS011;9556;49.374;19.446;2023-08-12T14:47:00;1.88;;;1.60;;
18853;SDS011;9556;49.374;19.446;2023-08-12T14:49:30;1.90;;;1.60;;
18853;SDS011;9556;49.374;19.446;2023-08-12T14:51:57;1.98;;;1.73;;
18853;SDS011;9556;49.374;19.446;2023-08-12T14:54:24;1.92;;;1.70;;